createdAt,value
2018-05-14T00:00:12.368Z,178.13
2018-05-14T00:02:40.141Z,216.50
2018-05-14T00:05:07.890Z,192.23
2018-05-14T00:07:35.788Z,228.27
2018-05-14T00:10:03.632Z,226.97
2018-05-14T00:12:31.363Z,256.63
2018-05-14T00:14:59.156Z,240.57
2018-05-14T00:17:26.919Z,232.43
2018-05-14T00:19:54.658Z,241.83
2018-05-14T00:22:22.407Z,200.07
2018-05-14T00:24:50.224Z,188.50
2018-05-14T00:27:18.048Z,190.20
2018-05-14T00:29:45.742Z,163.33
2018-05-14T00:32:13.509Z,157.70
2018-05-14T00:34:41.245Z,166.30
2018-05-14T00:37:09.026Z,147.53
2018-05-14T00:39:37.729Z,146.07
2018-05-14T00:42:06.086Z,154.27
2018-05-14T00:44:33.904Z,170.70
2018-05-14T00:47:02.522Z,158.00
2018-05-14T00:49:30.550Z,157.90
2018-05-14T00:51:58.373Z,162.10
2018-05-14T00:54:26.680Z,165.93
2018-05-14T00:56:54.456Z,158.20
2018-05-14T00:59:22.276Z,170.80
2018-05-14T01:01:50.197Z,180.33
2018-05-14T01:04:18.052Z,180.47
2018-05-14T01:06:45.839Z,166.07
2018-05-14T01:09:14.410Z,146.60
2018-05-14T01:11:42.244Z,160.33
2018-05-14T01:14:10.237Z,166.20
2018-05-14T01:16:38.094Z,169.27
2018-05-14T01:19:05.868Z,161.67
2018-05-14T01:21:33.740Z,167.37
2018-05-14T01:24:01.522Z,182.77
2018-05-14T01:26:30.594Z,181.47
2018-05-14T01:28:58.933Z,177.77
2018-05-14T01:31:27.676Z,166.70
2018-05-14T01:34:02.076Z,180.40
2018-05-14T01:36:32.837Z,173.80
2018-05-14T01:39:01.469Z,181.93
2018-05-14T01:41:29.902Z,160.23
2018-05-14T01:43:58.471Z,168.10
2018-05-14T01:46:26.389Z,168.50
2018-05-14T01:48:54.263Z,195.47
2018-05-14T01:51:22.128Z,190.20
2018-05-14T01:53:49.933Z,210.13
2018-05-14T01:56:18.969Z,191.73
2018-05-14T01:58:50.109Z,199.13
2018-05-14T02:01:19.736Z,192.57
2018-05-14T02:03:48.719Z,214.63
2018-05-14T02:06:21.269Z,233.83
2018-05-14T02:08:55.575Z,213.93
2018-05-14T02:11:28.116Z,183.50
2018-05-14T02:14:00.734Z,183.30
2018-05-14T02:16:29.861Z,179.07
2018-05-14T02:18:57.684Z,184.27
2018-05-14T02:21:26.290Z,188.70
2018-05-14T02:23:54.264Z,179.70
2018-05-14T02:26:25.670Z,161.07
2018-05-14T02:28:53.904Z,166.80
2018-05-14T02:31:21.998Z,155.13
2018-05-14T02:33:51.623Z,170.47
2018-05-14T02:36:21.226Z,174.33
2018-05-14T02:38:52.329Z,149.40
2018-05-14T02:41:22.405Z,163.20
2018-05-14T02:43:50.624Z,153.83
2018-05-14T02:46:18.474Z,145.10
2018-05-14T02:48:49.498Z,165.77
2018-05-14T02:51:20.975Z,175.53
2018-05-14T02:53:53.081Z,159.63
2018-05-14T02:56:21.457Z,174.40
2018-05-14T02:58:50.424Z,159.67
2018-05-14T03:01:22.019Z,154.83
2018-05-14T03:03:53.799Z,162.70
2018-05-14T03:06:23.146Z,162.20
2018-05-14T03:08:52.109Z,168.97
2018-05-14T03:11:25.274Z,149.40
2018-05-14T03:13:54.129Z,129.47
2018-05-14T03:16:21.939Z,157.87
2018-05-14T03:18:49.743Z,141.87
2018-05-14T03:21:18.294Z,141.90
2018-05-14T03:23:50.705Z,144.67
2018-05-14T03:26:20.600Z,132.23
2018-05-14T03:28:52.400Z,125.67
2018-05-14T03:31:25.867Z,134.80
2018-05-14T03:33:58.456Z,124.33
2018-05-14T03:36:30.892Z,126.47
2018-05-14T03:38:59.744Z,140.27
2018-05-14T03:41:30.716Z,132.33
2018-05-14T03:43:59.780Z,158.27
2018-05-14T03:46:28.356Z,140.80
2018-05-14T03:48:56.108Z,152.30
2018-05-14T03:51:24.651Z,143.60
2018-05-14T03:53:52.395Z,145.03
2018-05-14T03:56:20.287Z,135.40
2018-05-14T03:58:59.776Z,124.40
2018-05-14T04:01:39.468Z,120.50
2018-05-14T04:04:19.002Z,114.73
2018-05-14T04:06:46.800Z,123.60
2018-05-14T04:09:15.324Z,115.67
2018-05-14T04:11:44.176Z,123.67
2018-05-14T04:14:12.681Z,117.47
2018-05-14T04:16:40.503Z,123.00
2018-05-14T04:19:08.976Z,138.40
2018-05-14T04:21:36.725Z,130.87
2018-05-14T04:24:04.510Z,118.10
2018-05-14T04:26:32.294Z,115.93
2018-05-14T04:29:00.791Z,112.27
2018-05-14T04:31:29.311Z,97.60
2018-05-14T04:33:57.051Z,90.87
2018-05-14T04:36:24.860Z,101.43
2018-05-14T04:38:52.572Z,89.60
2018-05-14T04:41:21.079Z,85.90
2018-05-14T04:43:48.832Z,93.50
2018-05-14T04:46:16.594Z,92.73
2018-05-14T04:48:44.361Z,81.73
2018-05-14T04:51:12.092Z,84.50
2018-05-14T04:53:40.069Z,77.43
2018-05-14T04:56:08.564Z,75.00
2018-05-14T04:58:37.065Z,62.57
2018-05-14T05:01:04.825Z,77.00
2018-05-14T05:03:32.585Z,81.33
2018-05-14T05:06:00.356Z,76.80
2018-05-14T05:08:28.254Z,75.43
2018-05-14T05:10:55.984Z,67.97
2018-05-14T05:13:23.713Z,72.53
2018-05-14T05:15:51.477Z,62.80
2018-05-14T05:18:19.218Z,56.13
2018-05-14T05:20:46.985Z,51.93
2018-05-14T05:23:14.724Z,50.07
2018-05-14T05:25:42.865Z,51.70
2018-05-14T05:28:11.362Z,49.63
2018-05-14T05:30:39.085Z,47.43
2018-05-14T05:33:06.840Z,46.77
2018-05-14T05:35:34.678Z,43.50
2018-05-14T05:38:02.447Z,46.37
2018-05-14T05:40:30.192Z,47.10
2018-05-14T05:42:57.966Z,43.37
2018-05-14T05:45:25.796Z,42.60
2018-05-14T05:47:53.500Z,40.43
2018-05-14T05:50:21.370Z,40.07
2018-05-14T05:52:49.110Z,40.90
2018-05-14T05:55:16.878Z,42.17
2018-05-14T05:57:47.147Z,40.03
2018-05-14T06:00:17.458Z,40.90
2018-05-14T06:02:45.297Z,39.37
2018-05-14T06:05:13.037Z,38.40
2018-05-14T06:07:42.023Z,40.50
2018-05-14T06:10:10.564Z,30.80
2018-05-14T06:12:38.290Z,28.73
2018-05-14T06:15:06.101Z,26.70
2018-05-14T06:17:34.084Z,28.50
2018-05-14T06:20:03.113Z,29.67
2018-05-14T06:22:31.739Z,30.00
2018-05-14T06:24:59.490Z,28.27
2018-05-14T06:27:27.224Z,31.77
2018-05-14T06:29:55.865Z,25.70
2018-05-14T06:32:23.590Z,26.17
2018-05-14T06:34:51.307Z,24.33
2018-05-14T06:37:19.075Z,25.80
2018-05-14T06:39:46.813Z,20.10
2018-05-14T06:42:14.616Z,24.27
2018-05-14T06:44:43.138Z,21.10
2018-05-14T06:47:10.889Z,19.80
2018-05-14T06:49:38.789Z,20.47
2018-05-14T06:52:06.522Z,22.37
2018-05-14T06:54:34.251Z,21.40
2018-05-14T06:57:02.115Z,19.73
2018-05-14T06:59:29.862Z,25.73
2018-05-14T07:01:57.595Z,22.70
2018-05-14T07:04:25.476Z,19.60
2018-05-14T07:06:53.331Z,19.60
2018-05-14T07:09:20.997Z,19.13
2018-05-14T07:11:48.780Z,18.07
2018-05-14T07:14:16.556Z,18.17
2018-05-14T07:16:44.337Z,17.80
2018-05-14T07:19:12.245Z,20.90
2018-05-14T07:21:39.988Z,18.67
2018-05-14T07:24:08.491Z,16.13
2018-05-14T07:26:36.270Z,18.30
2018-05-14T07:29:04.512Z,16.80
2018-05-14T07:31:33.010Z,18.93
2018-05-14T07:34:01.514Z,16.60
2018-05-14T07:36:29.279Z,18.50
2018-05-14T07:38:57.021Z,15.17
2018-05-14T07:41:25.566Z,17.53
2018-05-14T07:43:53.304Z,23.73
2018-05-14T07:46:21.035Z,15.13
2018-05-14T07:48:48.807Z,17.63
2018-05-14T07:51:16.572Z,16.07
2018-05-14T07:53:44.355Z,16.90
2018-05-14T07:56:12.085Z,18.10
2018-05-14T07:58:40.735Z,13.93
2018-05-14T08:01:08.464Z,13.17
2018-05-14T08:03:36.180Z,19.87
2018-05-14T08:06:04.095Z,16.60
2018-05-14T08:08:31.818Z,14.80
2018-05-14T08:10:59.544Z,14.60
2018-05-14T08:13:27.303Z,15.53
2018-05-14T08:15:55.946Z,14.33
2018-05-14T08:18:24.429Z,13.93
2018-05-14T08:20:52.911Z,13.63
2018-05-14T08:23:21.440Z,19.07
2018-05-14T08:25:49.177Z,12.90
2018-05-14T08:28:17.048Z,14.60
2018-05-14T08:30:44.774Z,18.37
2018-05-14T08:33:13.267Z,19.43
2018-05-14T08:35:41.808Z,19.00
2018-05-14T08:38:09.559Z,17.40
2018-05-14T08:40:37.329Z,15.13
2018-05-14T08:43:05.076Z,15.83
2018-05-14T08:45:32.870Z,19.33
2018-05-14T08:48:00.633Z,14.87
2018-05-14T08:50:28.519Z,15.57
2018-05-14T08:52:56.238Z,16.00
2018-05-14T08:55:23.974Z,20.27
2018-05-14T08:57:52.507Z,14.20
2018-05-14T09:00:20.245Z,13.90
2018-05-14T09:02:48.028Z,15.93
2018-05-14T09:05:15.754Z,18.83
2018-05-14T09:07:44.301Z,18.60
2018-05-14T09:10:12.026Z,14.13
2018-05-14T09:12:39.784Z,16.30
2018-05-14T09:15:07.525Z,19.23
2018-05-14T09:17:36.062Z,15.97
2018-05-14T09:20:03.853Z,27.83
2018-05-14T09:22:31.632Z,19.53
2018-05-14T09:25:00.142Z,17.87
2018-05-14T09:27:27.905Z,15.30
2018-05-14T09:29:55.664Z,15.63
2018-05-14T09:32:23.420Z,18.03
2018-05-14T09:34:52.076Z,15.90
2018-05-14T09:37:19.810Z,14.03
2018-05-14T09:39:47.591Z,20.10
2018-05-14T09:42:15.316Z,17.70
2018-05-14T09:44:43.076Z,13.83
2018-05-14T09:47:10.839Z,16.60
2018-05-14T09:49:38.587Z,14.07
2018-05-14T09:52:07.111Z,13.77
2018-05-14T09:54:34.893Z,19.13
2018-05-14T09:57:02.620Z,17.03
2018-05-14T09:59:30.424Z,15.73
2018-05-14T10:01:58.144Z,15.23
2018-05-14T10:04:25.861Z,17.93
2018-05-14T10:06:53.626Z,17.50
2018-05-14T10:09:21.375Z,12.47
2018-05-14T10:11:49.131Z,15.20
2018-05-14T10:14:16.882Z,18.30
2018-05-14T10:16:44.683Z,15.27
2018-05-14T10:19:12.479Z,15.60
2018-05-14T10:21:40.981Z,14.93
2018-05-14T10:24:09.238Z,15.30
2018-05-14T10:26:37.724Z,19.03
2018-05-14T10:29:06.209Z,17.03
2018-05-14T10:31:34.010Z,16.93
2018-05-14T10:34:01.747Z,15.93
2018-05-14T10:36:29.474Z,15.40
2018-05-14T10:38:57.244Z,17.20
2018-05-14T10:41:26.242Z,18.50
2018-05-14T10:43:54.010Z,19.03
2018-05-14T10:46:22.581Z,12.77
2018-05-14T10:48:50.343Z,14.03
2018-05-14T10:51:18.080Z,14.17
2018-05-14T10:53:45.946Z,14.50
2018-05-14T10:56:13.698Z,17.73
2018-05-14T10:58:41.436Z,13.83
2018-05-14T11:01:09.318Z,12.30
2018-05-14T11:03:37.054Z,12.80
2018-05-14T11:06:05.563Z,16.33
2018-05-14T11:08:33.337Z,10.37
2018-05-14T11:11:01.112Z,15.83
2018-05-14T11:13:28.863Z,11.07
2018-05-14T11:15:56.730Z,12.63
2018-05-14T11:18:24.588Z,14.60
2018-05-14T11:20:52.329Z,11.10
2018-05-14T11:23:20.828Z,12.40
2018-05-14T11:25:48.640Z,13.93
2018-05-14T11:28:16.363Z,10.67
2018-05-14T11:30:44.610Z,14.53
2018-05-14T11:33:13.104Z,11.37
2018-05-14T11:35:41.593Z,13.70
2018-05-14T11:38:09.382Z,13.93
2018-05-14T11:40:37.108Z,10.60
2018-05-14T11:43:05.618Z,16.53
2018-05-14T11:45:33.857Z,18.40
2018-05-14T11:48:02.345Z,9.43
2018-05-14T11:50:30.837Z,11.33
2018-05-14T11:52:58.589Z,10.83
2018-05-14T11:55:27.092Z,10.67
2018-05-14T11:57:54.885Z,9.67
2018-05-14T12:00:22.692Z,9.97
2018-05-14T12:02:51.192Z,7.93
2018-05-14T12:05:18.954Z,7.00
2018-05-14T12:07:47.596Z,11.60
2018-05-14T12:10:15.314Z,6.53
2018-05-14T12:12:43.053Z,6.67
2018-05-14T12:15:11.583Z,10.00
2018-05-14T12:17:39.444Z,6.50
2018-05-14T12:20:07.171Z,7.37
2018-05-14T12:22:35.659Z,7.00
2018-05-14T12:25:04.329Z,8.80
2018-05-14T12:27:32.819Z,8.17
2018-05-14T12:30:01.322Z,9.57
2018-05-14T12:32:29.099Z,9.63
2018-05-14T12:34:56.861Z,6.83
2018-05-14T12:37:24.633Z,9.03
2018-05-14T12:39:52.347Z,7.70
2018-05-14T12:42:20.976Z,6.10
2018-05-14T12:44:48.694Z,8.20
2018-05-14T12:47:17.187Z,8.67
2018-05-14T12:49:45.831Z,6.50
2018-05-14T12:52:14.340Z,7.17
2018-05-14T12:54:42.829Z,5.33
2018-05-14T12:57:11.364Z,9.90
2018-05-14T12:59:39.116Z,6.40
2018-05-14T13:02:06.897Z,5.43
2018-05-14T13:04:34.671Z,7.73
2018-05-14T13:07:02.625Z,11.73
2018-05-14T13:09:31.072Z,11.07
2018-05-14T13:11:58.820Z,10.00
2018-05-14T13:14:27.097Z,6.70
2018-05-14T13:16:54.964Z,9.30
2018-05-14T13:19:22.688Z,5.83
2018-05-14T13:21:50.474Z,10.30
2018-05-14T13:24:18.968Z,6.50
2018-05-14T13:26:46.689Z,9.00
2018-05-14T13:29:14.442Z,4.77
2018-05-14T13:31:42.311Z,4.57
2018-05-14T13:34:10.028Z,5.37
2018-05-14T13:36:37.761Z,5.27
2018-05-14T13:39:06.338Z,7.40
2018-05-14T13:41:34.068Z,5.40
2018-05-14T13:44:02.245Z,5.70
2018-05-14T13:46:29.951Z,5.90
2018-05-14T13:48:58.480Z,6.43
2018-05-14T13:51:26.241Z,4.77
2018-05-14T13:53:53.964Z,6.90
2018-05-14T13:56:22.954Z,7.53
2018-05-14T13:58:51.463Z,4.80
2018-05-14T14:01:19.184Z,6.63
2018-05-14T14:03:47.720Z,5.53
2018-05-14T14:06:15.522Z,5.70
2018-05-14T14:08:43.248Z,5.40
2018-05-14T14:11:10.972Z,5.43
2018-05-14T14:13:39.506Z,6.93
2018-05-14T14:16:07.232Z,6.47
2018-05-14T14:18:35.030Z,5.70
2018-05-14T14:21:02.760Z,5.37
2018-05-14T14:23:30.743Z,8.30
2018-05-14T14:25:59.110Z,6.03
2018-05-14T14:28:26.816Z,5.30
2018-05-14T14:30:54.714Z,6.93
2018-05-14T14:33:23.209Z,8.20
2018-05-14T14:35:50.981Z,7.80
2018-05-14T14:38:18.759Z,4.60
2018-05-14T14:40:46.541Z,4.13
2018-05-14T14:43:14.362Z,7.33
2018-05-14T14:45:42.103Z,6.23
2018-05-14T14:48:10.635Z,3.73
2018-05-14T14:50:38.405Z,9.93
2018-05-14T14:53:06.190Z,6.10
2018-05-14T14:55:33.909Z,4.80
2018-05-14T14:58:01.677Z,4.67
2018-05-14T15:00:29.514Z,3.67
2018-05-14T15:02:58.047Z,4.00
2018-05-14T15:05:25.766Z,3.97
2018-05-14T15:07:53.559Z,5.83
2018-05-14T15:10:21.303Z,3.70
2018-05-14T15:12:49.016Z,5.03
2018-05-14T15:15:16.782Z,10.37
2018-05-14T15:17:44.576Z,3.60
2018-05-14T15:20:13.105Z,4.70
2018-05-14T15:22:40.977Z,3.63
2018-05-14T15:25:08.706Z,4.00
2018-05-14T15:27:36.483Z,4.40
2018-05-14T15:30:04.309Z,8.07
2018-05-14T15:32:32.979Z,7.80
2018-05-14T15:35:01.161Z,5.00
2018-05-14T15:37:29.643Z,5.80
2018-05-14T15:39:58.140Z,3.23
2018-05-14T15:42:25.952Z,3.47
2018-05-14T15:44:53.675Z,5.80
2018-05-14T15:47:21.412Z,6.67
2018-05-14T15:49:49.996Z,5.60
2018-05-14T15:52:17.785Z,6.10
2018-05-14T15:54:45.523Z,4.47
2018-05-14T15:57:14.008Z,10.33
2018-05-14T15:59:42.535Z,11.60
2018-05-14T16:02:10.324Z,8.40
2018-05-14T16:04:38.326Z,16.60
2018-05-14T16:07:06.859Z,21.70
2018-05-14T16:09:34.624Z,8.57
2018-05-14T16:12:02.734Z,15.17
2018-05-14T16:14:31.288Z,6.80
2018-05-14T16:16:58.983Z,8.50
2018-05-14T16:19:27.537Z,8.13
2018-05-14T16:21:55.266Z,100.80
2018-05-14T16:24:23.000Z,25.90
2018-05-14T16:26:50.754Z,17.00
2018-05-14T16:29:18.484Z,5.33
2018-05-14T16:31:46.273Z,8.40
2018-05-14T16:34:14.761Z,11.60
2018-05-14T16:36:43.295Z,5.70
2018-05-14T16:39:11.101Z,8.80
2018-05-14T16:41:39.608Z,10.60
2018-05-14T16:44:07.334Z,8.13
2018-05-14T16:46:35.925Z,9.67
2018-05-14T16:49:04.433Z,12.17
2018-05-14T16:51:32.168Z,9.43
2018-05-14T16:54:01.055Z,13.03
2018-05-14T16:56:29.585Z,12.33
2018-05-14T16:58:57.342Z,8.63
2018-05-14T17:01:25.115Z,6.57
2018-05-14T17:03:52.843Z,11.63
2018-05-14T17:06:20.616Z,6.80
2018-05-14T17:08:48.338Z,9.33
2018-05-14T17:11:16.120Z,12.53
2018-05-14T17:13:45.208Z,9.40
2018-05-14T17:16:13.711Z,8.00
2018-05-14T17:18:41.541Z,10.90
2018-05-14T17:21:09.276Z,9.83
2018-05-14T17:23:37.057Z,10.10
2018-05-14T17:26:05.247Z,8.60
2018-05-14T17:28:33.743Z,18.10
2018-05-14T17:31:03.450Z,6.60
2018-05-14T17:33:32.826Z,14.50
2018-05-14T17:36:01.109Z,10.40
2018-05-14T17:38:30.733Z,5.67
2018-05-14T17:40:59.136Z,8.53
2018-05-14T17:43:27.970Z,12.03
2018-05-14T17:45:56.663Z,7.07
2018-05-14T17:48:25.193Z,8.60
2018-05-14T17:50:53.821Z,11.90
2018-05-14T17:53:21.653Z,12.50
2018-05-14T17:55:49.443Z,25.97
2018-05-14T17:58:17.219Z,7.80
2018-05-14T18:00:45.016Z,8.23
2018-05-14T18:03:12.745Z,8.43
2018-05-14T18:05:40.476Z,7.47
2018-05-14T18:08:09.129Z,7.03
2018-05-14T18:10:42.276Z,7.43
2018-05-14T18:13:10.171Z,7.20
2018-05-14T18:15:38.696Z,7.07
2018-05-14T18:18:06.447Z,5.63
2018-05-14T18:20:38.167Z,10.53
2018-05-14T18:23:06.930Z,6.43
2018-05-14T18:25:41.544Z,9.03
2018-05-14T18:28:15.479Z,8.03
2018-05-14T18:30:43.370Z,5.53
2018-05-14T18:33:11.135Z,9.03
2018-05-14T18:35:44.496Z,8.47
2018-05-14T18:38:12.230Z,9.00
2018-05-14T18:40:40.756Z,7.70
2018-05-14T18:43:09.302Z,8.30
2018-05-14T18:45:37.088Z,6.17
2018-05-14T18:48:04.977Z,5.50
2018-05-14T18:50:32.723Z,15.97
2018-05-14T18:53:01.222Z,8.57
2018-05-14T18:55:28.979Z,7.80
2018-05-14T18:57:57.475Z,6.80
2018-05-14T19:00:25.352Z,6.40
2018-05-14T19:02:53.091Z,9.23
2018-05-14T19:05:21.801Z,11.80
2018-05-14T19:07:52.220Z,7.60
2018-05-14T19:10:27.108Z,8.23
2018-05-14T19:12:56.045Z,8.13
2018-05-14T19:15:31.189Z,9.47
2018-05-14T19:18:00.398Z,8.90
2018-05-14T19:20:28.133Z,5.60
2018-05-14T19:23:01.619Z,7.53
2018-05-14T19:25:29.515Z,11.43
2018-05-14T19:28:03.217Z,16.70
2018-05-14T19:30:31.724Z,10.70
2018-05-14T19:33:00.451Z,7.10
2018-05-14T19:35:34.723Z,7.57
2018-05-14T19:38:04.459Z,9.20
2018-05-14T19:40:41.634Z,7.60
2018-05-14T19:43:10.033Z,10.27
2018-05-14T19:45:38.609Z,8.00
2018-05-14T19:48:07.261Z,8.80
2018-05-14T19:50:35.737Z,7.37
2018-05-14T19:53:03.509Z,10.37
2018-05-14T19:55:31.250Z,9.13
2018-05-14T19:57:59.839Z,7.23
2018-05-14T20:00:28.460Z,7.87
2018-05-14T20:02:57.663Z,12.50
2018-05-14T20:05:26.362Z,7.87
2018-05-14T20:07:54.166Z,9.80
2018-05-14T20:10:21.924Z,8.33
2018-05-14T20:12:50.057Z,6.20
2018-05-14T20:15:17.808Z,7.90
2018-05-14T20:17:46.956Z,10.10
2018-05-14T20:20:15.108Z,11.00
2018-05-14T20:22:42.907Z,8.80
2018-05-14T20:25:10.733Z,13.90
2018-05-14T20:27:38.561Z,7.87
2018-05-14T20:30:08.283Z,9.73
2018-05-14T20:32:37.338Z,8.10
2018-05-14T20:35:06.137Z,9.90
2018-05-14T20:37:34.337Z,7.43
2018-05-14T20:40:03.172Z,10.23
2018-05-14T20:42:31.612Z,8.33
2018-05-14T20:45:00.019Z,9.87
2018-05-14T20:47:29.023Z,10.87
2018-05-14T20:49:58.083Z,12.27
2018-05-14T20:52:26.880Z,11.53
2018-05-14T20:54:55.465Z,12.23
2018-05-14T20:57:24.351Z,7.70
2018-05-14T20:59:52.208Z,7.50
2018-05-14T21:02:20.090Z,7.80
2018-05-14T21:04:47.822Z,8.93
2018-05-14T21:07:17.157Z,10.30
2018-05-14T21:09:47.361Z,7.80
2018-05-14T21:12:16.193Z,5.70
2018-05-14T21:14:45.122Z,11.00
2018-05-14T21:17:13.049Z,8.73
2018-05-14T21:19:41.683Z,13.07
2018-05-14T21:22:09.787Z,8.33
2018-05-14T21:24:37.591Z,12.30
2018-05-14T21:27:05.479Z,9.53
2018-05-14T21:29:33.213Z,13.30
2018-05-14T21:32:01.617Z,7.03
2018-05-14T21:34:30.287Z,9.90
2018-05-14T21:36:58.775Z,9.60
2018-05-14T21:39:27.304Z,11.87
2018-05-14T21:41:55.036Z,8.47
2018-05-14T21:44:24.044Z,8.53
2018-05-14T21:46:53.518Z,10.30
2018-05-14T21:49:23.270Z,7.73
2018-05-14T21:51:51.358Z,10.60
2018-05-14T21:54:19.077Z,19.43
2018-05-14T21:56:46.814Z,19.03
2018-05-14T21:59:15.330Z,11.80
2018-05-14T22:01:43.073Z,11.03
2018-05-14T22:04:11.739Z,10.57
2018-05-14T22:06:40.242Z,8.43
2018-05-14T22:09:07.964Z,8.13
2018-05-14T22:11:35.713Z,9.50
2018-05-14T22:14:03.517Z,8.17
2018-05-14T22:16:32.044Z,11.60
2018-05-14T22:19:00.266Z,18.13
2018-05-14T22:21:28.790Z,6.90
2018-05-14T22:23:56.516Z,8.63
2018-05-14T22:26:25.081Z,10.33
2018-05-14T22:28:53.625Z,15.80
2018-05-14T22:31:21.375Z,8.50
2018-05-14T22:33:49.096Z,12.93
2018-05-14T22:36:17.740Z,11.70
2018-05-14T22:38:45.466Z,11.60
2018-05-14T22:41:13.194Z,11.07
2018-05-14T22:43:40.956Z,10.10
2018-05-14T22:46:08.706Z,11.63
2018-05-14T22:48:36.575Z,12.73
2018-05-14T22:51:04.334Z,12.07
2018-05-14T22:53:32.137Z,11.17
2018-05-14T22:56:00.615Z,16.23
2018-05-14T22:58:29.099Z,19.03
2018-05-14T23:00:57.805Z,10.70
2018-05-14T23:03:26.341Z,10.90
2018-05-14T23:05:54.121Z,10.77
2018-05-14T23:08:22.648Z,12.27
2018-05-14T23:10:50.498Z,9.80
2018-05-14T23:13:18.284Z,15.20
2018-05-14T23:15:46.036Z,10.63
2018-05-14T23:18:13.801Z,10.90
2018-05-14T23:20:41.525Z,11.60
2018-05-14T23:23:10.081Z,11.10
2018-05-14T23:25:37.805Z,7.40
2018-05-14T23:28:05.544Z,11.87
2018-05-14T23:30:33.323Z,10.20
2018-05-14T23:33:01.074Z,9.70
2018-05-14T23:35:28.953Z,8.87
2018-05-14T23:37:56.674Z,11.70
2018-05-14T23:40:24.403Z,11.23
2018-05-14T23:42:52.172Z,10.43
2018-05-14T23:45:19.884Z,12.80
2018-05-14T23:47:48.420Z,12.33
2018-05-14T23:50:16.153Z,11.20
2018-05-14T23:52:43.909Z,9.67
2018-05-14T23:55:11.648Z,13.30
2018-05-14T23:57:40.294Z,11.40
